Time;durP1;ratioP1;P1;durP2;ratioP2;P2;SDS_P1;SDS_P2;PMS_P1;PMS_P2;Temp;Humidity;BMP_temperature;BMP_pressure;BME280_temperature;BME280_humidity;BME280_pressure;Samples;Min_cycle;Max_cycle;Signal;HPM_P1;HPM_P2
2022/08/30 00:01:33;;;;;;;1.67;0.40;;;;;;;;;;5013119;28;20068;-51
2022/08/30 00:04:00;;;;;;;1.25;0.32;;;;;;;;;;5012753;28;20049;-49
2022/08/30 00:06:27;;;;;;;1.25;0.40;;;;;;;;;;5012954;28;20501;-52
2022/08/30 00:08:54;;;;;;;1.65;0.40;;;;;;;;;;5009648;28;20070;-52
2022/08/30 00:11:22;;;;;;;1.67;0.57;;;;;;;;;;4993356;28;20066;-52
2022/08/30 00:13:51;;;;;;;1.55;0.47;;;;;;;;;;4993091;28;20493;-52
2022/08/30 00:16:18;;;;;;;2.78;0.22;;;;;;;;;;4993285;28;20047;-49
2022/08/30 00:18:45;;;;;;;1.38;0.40;;;;;;;;;;4993108;28;20054;-51
2022/08/30 00:21:12;;;;;;;0.55;0.30;;;;;;;;;;4993134;28;20070;-52
2022/08/30 00:23:39;;;;;;;1.17;0.30;;;;;;;;;;4993078;28;20060;-49
2022/08/30 00:26:05;;;;;;;1.85;0.57;;;;;;;;;;4993447;28;20050;-49
2022/08/30 00:28:32;;;;;;;1.33;0.38;;;;;;;;;;4993064;28;20056;-51
2022/08/30 00:31:00;;;;;;;3.10;0.57;;;;;;;;;;4996853;28;20054;-49
2022/08/30 00:33:27;;;;;;;2.33;0.40;;;;;;;;;;4996474;28;20046;-52
2022/08/30 00:35:55;;;;;;;0.40;0.30;;;;;;;;;;4996400;28;20363;-50
2022/08/30 00:38:21;;;;;;;1.02;0.25;;;;;;;;;;4996041;28;20050;-52
2022/08/30 00:40:48;;;;;;;1.30;0.30;;;;;;;;;;4996811;28;20062;-49
2022/08/30 00:43:16;;;;;;;0.63;0.30;;;;;;;;;;4996391;28;20519;-52
2022/08/30 00:45:42;;;;;;;0.40;0.20;;;;;;;;;;4996422;28;20655;-50
2022/08/30 00:48:09;;;;;;;0.60;0.17;;;;;;;;;;4996657;28;20058;-49
2022/08/30 00:50:37;;;;;;;2.83;0.30;;;;;;;;;;4996515;28;20054;-52
2022/08/30 00:53:06;;;;;;;1.50;0.25;;;;;;;;;;4985796;28;20051;-51
2022/08/30 00:55:33;;;;;;;0.82;0.40;;;;;;;;;;4976936;28;20062;-52
2022/08/30 00:58:01;;;;;;;1.38;0.35;;;;;;;;;;5003171;28;20081;-50
2022/08/30 01:00:28;;;;;;;1.35;0.30;;;;;;;;;;5015623;28;20072;-51
2022/08/30 01:02:54;;;;;;;0.95;0.60;;;;;;;;;;5015587;28;20081;-49
2022/08/30 01:05:21;;;;;;;0.47;0.15;;;;;;;;;;5015483;28;20061;-50
2022/08/30 01:07:47;;;;;;;0.85;0.10;;;;;;;;;;5015389;28;20053;-53
2022/08/30 01:10:16;;;;;;;2.42;0.38;;;;;;;;;;5001685;28;20072;-52
2022/08/30 01:12:43;;;;;;;0.70;0.30;;;;;;;;;;4995704;28;20050;-52
2022/08/30 01:15:11;;;;;;;1.75;0.20;;;;;;;;;;4995661;28;20479;-51
2022/08/30 01:17:40;;;;;;;1.45;0.25;;;;;;;;;;4995601;28;20054;-51
2022/08/30 01:20:08;;;;;;;0.70;0.20;;;;;;;;;;4995943;28;20057;-52
2022/08/30 01:22:36;;;;;;;0.57;0.22;;;;;;;;;;4995698;28;20511;-52
2022/08/30 01:25:04;;;;;;;0.93;0.30;;;;;;;;;;4995887;28;20047;-52
2022/08/30 01:27:31;;;;;;;0.63;0.20;;;;;;;;;;4995852;28;20061;-52
2022/08/30 01:29:58;;;;;;;0.68;0.20;;;;;;;;;;4996087;28;20050;-51
2022/08/30 01:32:27;;;;;;;1.48;0.25;;;;;;;;;;4995873;28;20054;-52
2022/08/30 01:34:54;;;;;;;0.57;0.20;;;;;;;;;;4995557;28;20058;-52
2022/08/30 01:37:23;;;;;;;3.08;0.20;;;;;;;;;;4995822;28;20563;-49
2022/08/30 01:39:49;;;;;;;2.28;0.30;;;;;;;;;;4995399;28;20061;-52
2022/08/30 01:42:17;;;;;;;0.65;0.20;;;;;;;;;;4995549;28;20058;-52
2022/08/30 01:44:44;;;;;;;1.48;0.30;;;;;;;;;;4995782;28;20082;-51
2022/08/30 01:47:10;;;;;;;1.02;0.30;;;;;;;;;;4995519;28;20047;-51
2022/08/30 01:49:37;;;;;;;0.65;0.20;;;;;;;;;;4995579;28;20050;-51
2022/08/30 01:52:03;;;;;;;1.58;0.30;;;;;;;;;;4995317;28;20074;-52
2022/08/30 01:54:30;;;;;;;1.13;0.25;;;;;;;;;;4995403;28;20070;-50
2022/08/30 01:56:56;;;;;;;1.17;0.30;;;;;;;;;;5000224;28;20048;-52
2022/08/30 01:59:24;;;;;;;0.80;0.20;;;;;;;;;;5014682;28;20064;-52
2022/08/30 02:01:51;;;;;;;0.90;0.30;;;;;;;;;;5014667;28;20501;-50
2022/08/30 02:04:17;;;;;;;0.50;0.30;;;;;;;;;;5014788;28;20522;-49
2022/08/30 02:06:44;;;;;;;0.82;0.30;;;;;;;;;;5015263;28;20057;-52
2022/08/30 02:09:10;;;;;;;1.50;0.32;;;;;;;;;;5009368;28;20120;-52
2022/08/30 02:11:36;;;;;;;0.50;0.40;;;;;;;;;;4995229;28;20054;-52
2022/08/30 02:14:03;;;;;;;3.33;0.38;;;;;;;;;;4995143;28;20054;-50
2022/08/30 02:16:31;;;;;;;0.98;0.30;;;;;;;;;;4995017;28;20053;-53
2022/08/30 02:18:57;;;;;;;2.47;0.35;;;;;;;;;;4995127;28;20058;-53
2022/08/30 02:21:24;;;;;;;0.93;0.22;;;;;;;;;;4994455;28;20066;-52
2022/08/30 02:23:51;;;;;;;1.02;0.40;;;;;;;;;;4994899;28;20057;-49
2022/08/30 02:26:18;;;;;;;2.05;0.60;;;;;;;;;;4994770;28;20042;-52
2022/08/30 02:28:45;;;;;;;3.55;0.40;;;;;;;;;;4994485;28;20056;-52
2022/08/30 02:31:11;;;;;;;1.30;0.40;;;;;;;;;;4994763;28;20061;-52
2022/08/30 02:33:39;;;;;;;1.58;0.30;;;;;;;;;;4994475;28;20058;-49
2022/08/30 02:36:06;;;;;;;3.50;0.55;;;;;;;;;;4994259;28;20501;-52
2022/08/30 02:38:32;;;;;;;1.85;0.60;;;;;;;;;;4994705;28;20047;-52
2022/08/30 02:40:59;;;;;;;1.90;0.40;;;;;;;;;;4994477;28;20065;-52
2022/08/30 02:43:25;;;;;;;1.10;0.40;;;;;;;;;;4994326;28;20463;-52
2022/08/30 02:45:52;;;;;;;3.40;0.45;;;;;;;;;;4994446;28;20149;-52
2022/08/30 02:48:18;;;;;;;3.60;0.43;;;;;;;;;;4994535;28;20140;-52
2022/08/30 02:50:47;;;;;;;1.80;0.50;;;;;;;;;;4994168;28;20054;-52
2022/08/30 02:53:14;;;;;;;1.25;0.43;;;;;;;;;;4981528;28;20050;-52
2022/08/30 02:55:40;;;;;;;2.00;0.43;;;;;;;;;;4974553;28;20066;-52
2022/08/30 02:58:07;;;;;;;1.95;0.73;;;;;;;;;;5002776;28;20057;-52
2022/08/30 03:00:34;;;;;;;1.73;0.75;;;;;;;;;;5013435;28;20112;-51
2022/08/30 03:03:02;;;;;;;5.35;0.52;;;;;;;;;;5013760;28;20061;-52
2022/08/30 03:05:29;;;;;;;1.30;0.38;;;;;;;;;;5013832;28;20053;-52
2022/08/30 03:07:57;;;;;;;1.92;0.55;;;;;;;;;;5013782;28;20054;-52
2022/08/30 03:10:23;;;;;;;5.60;0.73;;;;;;;;;;5013673;28;20057;-52
2022/08/30 03:12:49;;;;;;;2.15;0.50;;;;;;;;;;5013411;28;20054;-52
2022/08/30 03:15:16;;;;;;;1.38;0.40;;;;;;;;;;5013646;28;20053;-52
2022/08/30 03:17:42;;;;;;;1.48;0.20;;;;;;;;;;4994604;28;20460;-52
2022/08/30 03:20:09;;;;;;;1.55;0.50;;;;;;;;;;4974345;28;20058;-51
2022/08/30 03:22:36;;;;;;;1.00;0.47;;;;;;;;;;4974562;28;20051;-50
2022/08/30 03:25:04;;;;;;;2.30;0.40;;;;;;;;;;4993604;28;20530;-52
2022/08/30 03:27:30;;;;;;;2.90;0.40;;;;;;;;;;4993969;28;20050;-52
2022/08/30 03:29:57;;;;;;;1.95;0.43;;;;;;;;;;4993470;28;20050;-50
2022/08/30 03:32:23;;;;;;;0.93;0.30;;;;;;;;;;4993583;28;20050;-50
2022/08/30 03:34:50;;;;;;;1.45;0.30;;;;;;;;;;4993152;28;20384;-52
2022/08/30 03:37:16;;;;;;;1.67;0.30;;;;;;;;;;4993541;28;20054;-50
2022/08/30 03:39:44;;;;;;;1.85;0.30;;;;;;;;;;4993191;28;20050;-52
2022/08/30 03:42:12;;;;;;;0.63;0.20;;;;;;;;;;4993328;28;20058;-50
2022/08/30 03:44:38;;;;;;;0.65;0.30;;;;;;;;;;4993958;28;20054;-50
2022/08/30 03:47:06;;;;;;;1.15;0.50;;;;;;;;;;4993355;28;20050;-52
2022/08/30 03:49:32;;;;;;;1.77;0.30;;;;;;;;;;4993456;28;20425;-49
2022/08/30 03:51:58;;;;;;;1.35;0.20;;;;;;;;;;4991817;28;20046;-49
2022/08/30 03:54:25;;;;;;;1.50;0.30;;;;;;;;;;4974362;28;20055;-52
2022/08/30 03:56:51;;;;;;;2.35;0.57;;;;;;;;;;4982014;28;20046;-50
2022/08/30 03:59:18;;;;;;;2.40;0.30;;;;;;;;;;5013057;28;20447;-49
2022/08/30 04:01:46;;;;;;;1.40;0.30;;;;;;;;;;5013088;28;20050;-52
2022/08/30 04:04:13;;;;;;;1.20;0.40;;;;;;;;;;5013729;28;20445;-52
2022/08/30 04:06:39;;;;;;;0.73;0.50;;;;;;;;;;5016919;28;20064;-49
2022/08/30 04:09:06;;;;;;;2.00;0.40;;;;;;;;;;5017112;28;20068;-52
2022/08/30 04:11:32;;;;;;;2.50;0.40;;;;;;;;;;5016739;28;20490;-51
2022/08/30 04:13:58;;;;;;;1.83;0.30;;;;;;;;;;4997837;28;20050;-49
2022/08/30 04:16:26;;;;;;;1.60;0.55;;;;;;;;;;4977636;28;20061;-52
2022/08/30 04:18:52;;;;;;;3.33;0.43;;;;;;;;;;4977749;28;20051;-52
2022/08/30 04:21:19;;;;;;;2.40;0.40;;;;;;;;;;4977419;28;20073;-52
2022/08/30 04:23:46;;;;;;;0.32;0.20;;;;;;;;;;4987133;28;20368;-52
2022/08/30 04:26:12;;;;;;;1.17;0.30;;;;;;;;;;4996750;28;20109;-52
2022/08/30 04:28:38;;;;;;;1.38;0.30;;;;;;;;;;4996794;28;20065;-49
2022/08/30 04:31:07;;;;;;;8.88;0.98;;;;;;;;;;4996544;28;20062;-50
2022/08/30 04:33:35;;;;;;;0.65;0.40;;;;;;;;;;4996625;28;20054;-50
2022/08/30 04:36:03;;;;;;;2.17;0.45;;;;;;;;;;4996565;28;20467;-50
2022/08/30 04:38:29;;;;;;;1.83;0.30;;;;;;;;;;4996965;28;20129;-52
2022/08/30 04:40:55;;;;;;;4.78;0.47;;;;;;;;;;4996572;28;20058;-51
2022/08/30 04:43:23;;;;;;;0.75;0.30;;;;;;;;;;4996472;28;20474;-51
2022/08/30 04:45:51;;;;;;;4.22;0.43;;;;;;;;;;4996659;28;20054;-52
2022/08/30 04:48:17;;;;;;;2.17;0.52;;;;;;;;;;4996620;28;20065;-51
2022/08/30 04:50:45;;;;;;;2.85;0.70;;;;;;;;;;4996590;28;20054;-51
2022/08/30 04:53:12;;;;;;;2.10;0.43;;;;;;;;;;4984258;28;20395;-52
2022/08/30 04:55:39;;;;;;;2.25;0.40;;;;;;;;;;4977491;28;20073;-49
2022/08/30 04:58:05;;;;;;;0.82;0.30;;;;;;;;;;5004887;28;20064;-50
2022/08/30 05:00:32;;;;;;;1.88;0.30;;;;;;;;;;5016229;28;20092;-49
2022/08/30 05:02:58;;;;;;;1.45;0.55;;;;;;;;;;5015714;28;20108;-49
2022/08/30 05:05:40;;;;;;;2.45;0.52;;;;;;;;;;5015569;28;20414;-49
2022/08/30 05:08:08;;;;;;;0.98;0.50;;;;;;;;;;5016006;28;20054;-49
2022/08/30 05:10:37;;;;;;;4.30;0.52;;;;;;;;;;4991281;28;20050;-49
2022/08/30 05:13:03;;;;;;;1.38;0.32;;;;;;;;;;4976259;28;20146;-49
2022/08/30 05:15:29;;;;;;;2.22;0.50;;;;;;;;;;4976178;28;20403;-49
2022/08/30 05:17:56;;;;;;;1.65;0.60;;;;;;;;;;4976398;28;20482;-52
2022/08/30 05:20:22;;;;;;;3.97;0.47;;;;;;;;;;4976480;28;20069;-52
2022/08/30 05:22:49;;;;;;;3.58;0.38;;;;;;;;;;4978488;28;20069;-48
2022/08/30 05:25:18;;;;;;;1.80;0.40;;;;;;;;;;4996099;28;20101;-49
2022/08/30 05:27:44;;;;;;;2.17;0.52;;;;;;;;;;4995960;28;20050;-49
2022/08/30 05:30:11;;;;;;;1.38;0.52;;;;;;;;;;4995915;28;20076;-49
2022/08/30 05:32:37;;;;;;;1.23;0.45;;;;;;;;;;4995261;28;20484;-49
2022/08/30 05:35:05;;;;;;;0.73;0.40;;;;;;;;;;4995873;28;20062;-49
2022/08/30 05:37:31;;;;;;;2.13;0.70;;;;;;;;;;4995967;28;20106;-53
2022/08/30 05:39:58;;;;;;;0.85;0.45;;;;;;;;;;4995668;28;20472;-49
2022/08/30 05:42:25;;;;;;;1.17;0.60;;;;;;;;;;4995430;28;20046;-52
2022/08/30 05:44:52;;;;;;;9.27;0.88;;;;;;;;;;4995557;28;20398;-50
2022/08/30 05:47:18;;;;;;;2.17;0.60;;;;;;;;;;4995295;28;20414;-49
2022/08/30 05:49:45;;;;;;;2.38;0.50;;;;;;;;;;4995658;28;20054;-49
2022/08/30 05:52:13;;;;;;;1.63;0.65;;;;;;;;;;4991633;28;20050;-52
2022/08/30 05:54:39;;;;;;;4.60;0.77;;;;;;;;;;4976093;28;20152;-49
2022/08/30 05:57:06;;;;;;;4.65;0.60;;;;;;;;;;4987195;28;20372;-51
2022/08/30 05:59:34;;;;;;;3.75;0.80;;;;;;;;;;5015123;28;20144;-51
2022/08/30 06:02:00;;;;;;;2.97;0.52;;;;;;;;;;5014810;28;20057;-51
2022/08/30 06:04:26;;;;;;;4.57;0.73;;;;;;;;;;5014702;28;20068;-52
2022/08/30 06:06:52;;;;;;;3.10;0.70;;;;;;;;;;5001335;28;20478;-49
2022/08/30 06:09:19;;;;;;;2.03;0.70;;;;;;;;;;4995224;28;20101;-49
2022/08/30 06:11:46;;;;;;;3.10;0.65;;;;;;;;;;4995120;28;20065;-49
2022/08/30 06:14:12;;;;;;;3.63;0.70;;;;;;;;;;4995027;28;20054;-50
2022/08/30 06:16:42;;;;;;;1.80;0.43;;;;;;;;;;4995103;28;20060;-49
2022/08/30 06:19:09;;;;;;;2.70;0.63;;;;;;;;;;4994721;28;20352;-51
2022/08/30 06:21:36;;;;;;;2.08;0.60;;;;;;;;;;4994677;28;20225;-52
2022/08/30 06:24:04;;;;;;;3.85;0.70;;;;;;;;;;4994907;28;20054;-52
2022/08/30 06:26:30;;;;;;;2.60;0.55;;;;;;;;;;4994462;28;20050;-53
2022/08/30 06:28:57;;;;;;;4.72;0.70;;;;;;;;;;4994507;28;20057;-49
2022/08/30 06:31:24;;;;;;;4.80;0.80;;;;;;;;;;4994930;28;20482;-49
2022/08/30 06:33:52;;;;;;;2.17;0.60;;;;;;;;;;4994610;28;20050;-49
2022/08/30 06:36:19;;;;;;;2.25;0.50;;;;;;;;;;4994666;28;20050;-50
2022/08/30 06:38:46;;;;;;;1.65;0.60;;;;;;;;;;4994308;28;20402;-49
2022/08/30 06:41:13;;;;;;;2.15;0.73;;;;;;;;;;4994164;28;20470;-50
2022/08/30 06:43:40;;;;;;;2.95;0.65;;;;;;;;;;4994575;28;20071;-49
2022/08/30 06:46:08;;;;;;;3.33;0.60;;;;;;;;;;4994426;28;20379;-49
2022/08/30 06:48:34;;;;;;;3.85;0.50;;;;;;;;;;4994553;28;20058;-49
2022/08/30 06:51:02;;;;;;;2.33;0.50;;;;;;;;;;4994564;28;20069;-49
2022/08/30 06:53:29;;;;;;;6.53;0.70;;;;;;;;;;4980230;28;20391;-49
2022/08/30 06:56:00;;;;;;;1.67;0.60;;;;;;;;;;4987040;28;20073;-52
2022/08/30 06:58:28;;;;;;;5.78;0.63;;;;;;;;;;4984746;28;20047;-52
2022/08/30 07:00:55;;;;;;;5.07;0.70;;;;;;;;;;4988636;28;20043;-49
2022/08/30 07:03:22;;;;;;;3.22;0.68;;;;;;;;;;4989546;28;20061;-52
2022/08/30 07:05:59;;;;;;;10.18;0.75;;;;;;;;;;4994527;28;20050;-52
2022/08/30 07:08:28;;;;;;;6.35;0.90;;;;;;;;;;4994346;28;20534;-52
2022/08/30 07:10:57;;;;;;;3.05;0.88;;;;;;;;;;4982248;28;20053;-50
2022/08/30 07:13:26;;;;;;;2.30;0.52;;;;;;;;;;4993873;28;20061;-51
2022/08/30 07:15:53;;;;;;;1.98;0.40;;;;;;;;;;4994805;28;20137;-52
2022/08/30 07:21:08;;;;;;;3.22;0.60;;;;;;;;;;4994138;28;20168;-52
2022/08/30 07:23:36;;;;;;;3.03;0.65;;;;;;;;;;4993920;28;20152;-49
2022/08/30 07:26:03;;;;;;;2.95;0.50;;;;;;;;;;4988795;28;20434;-50
2022/08/30 07:28:29;;;;;;;2.42;0.52;;;;;;;;;;4974734;28;20057;-51
2022/08/30 07:30:56;;;;;;;3.55;0.55;;;;;;;;;;4974655;28;20051;-52
2022/08/30 07:33:22;;;;;;;2.72;0.30;;;;;;;;;;4981198;28;20062;-50
2022/08/30 07:35:48;;;;;;;1.38;0.50;;;;;;;;;;4984673;28;20042;-52
2022/08/30 07:38:15;;;;;;;4.70;0.75;;;;;;;;;;4986781;28;20050;-49
2022/08/30 07:40:43;;;;;;;2.05;0.50;;;;;;;;;;4989428;28;20046;-52
2022/08/30 07:43:09;;;;;;;2.92;0.40;;;;;;;;;;4987974;28;20054;-52
2022/08/30 07:45:36;;;;;;;1.50;0.30;;;;;;;;;;4988688;28;20046;-49
2022/08/30 07:48:03;;;;;;;6.55;0.40;;;;;;;;;;4987011;28;20059;-49
2022/08/30 07:50:29;;;;;;;1.38;0.60;;;;;;;;;;4985045;28;20073;-51
2022/08/30 07:52:55;;;;;;;2.17;0.75;;;;;;;;;;4987890;28;20069;-49
2022/08/30 07:55:22;;;;;;;2.88;0.68;;;;;;;;;;4995336;28;20053;-50
2022/08/30 07:57:55;;;;;;;3.40;0.55;;;;;;;;;;5001436;28;20061;-51
2022/08/30 08:00:23;;;;;;;2.00;0.50;;;;;;;;;;4990040;28;20050;-51
2022/08/30 08:02:49;;;;;;;2.80;0.52;;;;;;;;;;5017302;28;20064;-52
2022/08/30 08:05:15;;;;;;;2.55;0.50;;;;;;;;;;5017123;28;20493;-51
2022/08/30 08:07:42;;;;;;;3.03;0.63;;;;;;;;;;4997093;28;20133;-51
2022/08/30 08:10:08;;;;;;;1.52;0.60;;;;;;;;;;4996577;28;20060;-49
2022/08/30 08:12:35;;;;;;;2.05;0.60;;;;;;;;;;4986048;28;20058;-49
2022/08/30 08:15:03;;;;;;;1.75;0.52;;;;;;;;;;4989513;28;20081;-49
2022/08/30 08:17:29;;;;;;;1.90;0.40;;;;;;;;;;4986779;28;20054;-49
2022/08/30 08:19:56;;;;;;;3.65;1.05;;;;;;;;;;4988458;28;20043;-49
2022/08/30 08:22:22;;;;;;;1.92;0.60;;;;;;;;;;4989922;28;20403;-49
2022/08/30 08:24:48;;;;;;;2.90;0.40;;;;;;;;;;4989512;28;20046;-52
2022/08/30 08:27:15;;;;;;;1.08;0.30;;;;;;;;;;4995025;28;20056;-52
2022/08/30 08:29:41;;;;;;;2.17;0.52;;;;;;;;;;4996583;28;20136;-51
2022/08/30 08:32:09;;;;;;;0.82;0.30;;;;;;;;;;4981410;28;20137;-48
2022/08/30 08:34:35;;;;;;;2.08;0.40;;;;;;;;;;4993065;28;20468;-48
2022/08/30 08:37:02;;;;;;;4.72;0.70;;;;;;;;;;4996271;28;20046;-49
2022/08/30 08:39:28;;;;;;;1.50;0.32;;;;;;;;;;4996461;28;20054;-49
2022/08/30 08:41:58;;;;;;;1.08;0.60;;;;;;;;;;4981772;28;20059;-49
2022/08/30 08:44:29;;;;;;;1.77;0.50;;;;;;;;;;4994508;28;20082;-49
2022/08/30 08:46:58;;;;;;;3.88;0.50;;;;;;;;;;4989933;28;20062;-50
2022/08/30 08:49:26;;;;;;;2.22;0.52;;;;;;;;;;4987172;28;20053;-52
2022/08/30 08:54:42;;;;;;;2.40;0.50;;;;;;;;;;4987728;28;20382;-49
2022/08/30 08:57:09;;;;;;;2.17;0.50;;;;;;;;;;4987065;28;20066;-51
2022/08/30 08:59:35;;;;;;;1.58;0.60;;;;;;;;;;4985781;28;20047;-52
2022/08/30 09:02:09;;;;;;;3.42;0.52;;;;;;;;;;4985869;28;20058;-49
2022/08/30 09:04:38;;;;;;;3.55;0.70;;;;;;;;;;4984021;28;20055;-49
2022/08/30 09:07:05;;;;;;;1.40;0.50;;;;;;;;;;4991914;28;20065;-49
2022/08/30 09:09:33;;;;;;;1.80;0.70;;;;;;;;;;4993005;28;20046;-51
2022/08/30 09:11:59;;;;;;;2.40;0.32;;;;;;;;;;4988919;28;20061;-49
2022/08/30 09:14:26;;;;;;;2.17;0.52;;;;;;;;;;4987636;28;20062;-51
2022/08/30 09:16:56;;;;;;;0.52;0.32;;;;;;;;;;4989292;28;20046;-51
2022/08/30 09:19:33;;;;;;;1.15;0.40;;;;;;;;;;4994248;28;20061;-49
2022/08/30 09:22:02;;;;;;;2.17;0.30;;;;;;;;;;4989401;28;20050;-49
2022/08/30 09:24:36;;;;;;;1.45;0.50;;;;;;;;;;4994463;28;20057;-49
2022/08/30 09:27:13;;;;;;;1.83;0.98;;;;;;;;;;4992388;28;20049;-52
2022/08/30 09:29:49;;;;;;;0.70;0.30;;;;;;;;;;4989491;28;20122;-49
2022/08/30 09:32:22;;;;;;;1.92;0.40;;;;;;;;;;4985904;28;20051;-51
2022/08/30 09:34:49;;;;;;;2.00;0.50;;;;;;;;;;4985122;28;20058;-51
2022/08/30 09:37:24;;;;;;;1.13;0.32;;;;;;;;;;4987073;28;20066;-52
2022/08/30 09:39:50;;;;;;;0.73;0.40;;;;;;;;;;4988246;28;20042;-51
2022/08/30 09:42:19;;;;;;;0.95;0.40;;;;;;;;;;4992523;28;20057;-49
2022/08/30 09:44:45;;;;;;;1.33;0.40;;;;;;;;;;4984606;28;20054;-50
2022/08/30 09:47:18;;;;;;;2.25;0.40;;;;;;;;;;4977523;28;20468;-49
2022/08/30 09:49:44;;;;;;;0.93;0.52;;;;;;;;;;4989239;28;20059;-49
2022/08/30 09:52:16;;;;;;;3.30;0.60;;;;;;;;;;4990445;28;20062;-49
2022/08/30 09:54:47;;;;;;;1.30;0.60;;;;;;;;;;4975305;28;20490;-48
2022/08/30 09:57:19;;;;;;;1.88;0.60;;;;;;;;;;4987238;28;20138;-49
2022/08/30 09:59:48;;;;;;;2.30;0.57;;;;;;;;;;4993708;28;20066;-50
2022/08/30 10:02:25;;;;;;;1.20;0.63;;;;;;;;;;4995123;28;20050;-49
2022/08/30 10:04:58;;;;;;;0.93;0.43;;;;;;;;;;4979662;28;20055;-48
2022/08/30 10:07:27;;;;;;;1.27;0.50;;;;;;;;;;4977718;28;20375;-49
2022/08/30 10:10:02;;;;;;;2.60;0.65;;;;;;;;;;4977854;28;20711;-48
2022/08/30 10:12:32;;;;;;;1.13;0.45;;;;;;;;;;4989650;28;20625;-49
2022/08/30 10:15:02;;;;;;;4.20;0.70;;;;;;;;;;4994090;28;20160;-50
2022/08/30 10:17:37;;;;;;;1.02;0.32;;;;;;;;;;4994743;28;20054;-49
2022/08/30 10:20:09;;;;;;;2.97;0.60;;;;;;;;;;4994941;28;20062;-52
2022/08/30 10:22:37;;;;;;;1.67;0.50;;;;;;;;;;4991233;28;20084;-50
2022/08/30 10:25:08;;;;;;;1.10;0.60;;;;;;;;;;4993555;28;20169;-50
2022/08/30 10:27:37;;;;;;;3.20;0.60;;;;;;;;;;4995348;28;20069;-49
2022/08/30 10:30:05;;;;;;;1.83;0.52;;;;;;;;;;4987104;28;20058;-51
2022/08/30 10:32:36;;;;;;;2.10;0.60;;;;;;;;;;4987590;28;20490;-47
2022/08/30 10:35:04;;;;;;;0.88;0.40;;;;;;;;;;4997653;28;20052;-50
2022/08/30 10:37:32;;;;;;;1.95;0.40;;;;;;;;;;5018865;28;20445;-48
2022/08/30 10:41:11;;;;;;;2.45;0.50;;;;;;;;;;5010424;28;20046;-51
2022/08/30 10:42:50;;;;;;;1.80;0.60;;;;;;;;;;4998842;28;20395;-47
2022/08/30 10:45:17;;;;;;;2.15;0.82;;;;;;;;;;4998633;28;20050;-48
2022/08/30 10:47:47;;;;;;;1.77;0.75;;;;;;;;;;4998570;28;20065;-49
2022/08/30 10:50:16;;;;;;;4.97;0.70;;;;;;;;;;4998694;28;20050;-49
2022/08/30 10:52:47;;;;;;;2.08;0.73;;;;;;;;;;4997032;28;20057;-51
2022/08/30 10:55:14;;;;;;;1.35;0.50;;;;;;;;;;4993175;28;20054;-48
2022/08/30 10:57:41;;;;;;;3.72;0.75;;;;;;;;;;5009843;28;20057;-50
2022/08/30 11:00:10;;;;;;;2.33;0.70;;;;;;;;;;5003819;28;20056;-50
2022/08/30 11:02:55;;;;;;;3.03;0.68;;;;;;;;;;4996877;28;20096;-48
2022/08/30 11:05:33;;;;;;;4.40;0.68;;;;;;;;;;4997447;28;20061;-50
2022/08/30 11:08:06;;;;;;;2.28;0.77;;;;;;;;;;4999079;28;20443;-47
2022/08/30 11:10:37;;;;;;;4.78;1.10;;;;;;;;;;4999695;28;20054;-50
2022/08/30 11:13:07;;;;;;;5.47;0.80;;;;;;;;;;4992547;28;20478;-49
2022/08/30 11:15:37;;;;;;;2.55;0.85;;;;;;;;;;4999935;28;20073;-49
2022/08/30 11:18:05;;;;;;;1.08;0.45;;;;;;;;;;4998381;28;20050;-49
2022/08/30 11:20:33;;;;;;;3.20;0.57;;;;;;;;;;4998972;28;20051;-48
2022/08/30 11:23:21;;;;;;;2.80;0.70;;;;;;;;;;4998574;28;20046;-49
2022/08/30 11:25:48;;;;;;;4.30;0.90;;;;;;;;;;4993636;28;20065;-51
2022/08/30 11:28:45;;;;;;;1.80;0.55;;;;;;;;;;4997875;28;20069;-50
2022/08/30 11:31:28;;;;;;;3.40;0.77;;;;;;;;;;4990255;28;20065;-48
2022/08/30 11:33:55;;;;;;;1.75;0.50;;;;;;;;;;4993895;28;20054;-49
2022/08/30 11:36:46;;;;;;;2.15;0.65;;;;;;;;;;4998654;28;20104;-49
2022/08/30 11:39:34;;;;;;;3.40;0.90;;;;;;;;;;4980102;28;20383;-48
2022/08/30 11:42:10;;;;;;;2.05;0.60;;;;;;;;;;4996074;28;20083;-47
2022/08/30 11:44:38;;;;;;;2.00;0.60;;;;;;;;;;4998401;28;20069;-47
2022/08/30 11:47:20;;;;;;;3.00;0.75;;;;;;;;;;4997021;28;20042;-48
2022/08/30 11:50:00;;;;;;;2.70;0.65;;;;;;;;;;4995875;28;20058;-48
2022/08/30 11:52:32;;;;;;;3.38;0.60;;;;;;;;;;4993242;28;20097;-48
2022/08/30 11:55:05;;;;;;;3.63;0.70;;;;;;;;;;4999084;28;20061;-48
2022/08/30 11:57:36;;;;;;;2.45;0.47;;;;;;;;;;4998166;28;20054;-51
2022/08/30 12:00:09;;;;;;;3.25;0.70;;;;;;;;;;4997174;28;20046;-48
2022/08/30 12:02:58;;;;;;;1.30;0.75;;;;;;;;;;4997309;28;20502;-49
2022/08/30 12:05:48;;;;;;;2.22;0.60;;;;;;;;;;4988327;28;20090;-49
2022/08/30 12:08:35;;;;;;;2.22;0.60;;;;;;;;;;4996336;28;20462;-50
2022/08/30 12:11:29;;;;;;;2.35;0.47;;;;;;;;;;4994975;28;20116;-49
2022/08/30 12:13:56;;;;;;;2.35;0.57;;;;;;;;;;5001295;28;20042;-50
2022/08/30 12:16:34;;;;;;;1.48;0.43;;;;;;;;;;4997037;28;20456;-48
2022/08/30 12:19:10;;;;;;;3.00;0.70;;;;;;;;;;4996747;28;20050;-48
2022/08/30 12:21:38;;;;;;;1.45;0.55;;;;;;;;;;4994250;28;20141;-51
2022/08/30 12:24:14;;;;;;;3.08;0.80;;;;;;;;;;4991877;28;20110;-51
2022/08/30 12:26:42;;;;;;;1.90;0.60;;;;;;;;;;4995019;28;20133;-48
2022/08/30 12:29:15;;;;;;;1.70;0.70;;;;;;;;;;4997664;28;20378;-47
2022/08/30 12:31:45;;;;;;;1.67;0.50;;;;;;;;;;4998512;28;20084;-48
2022/08/30 12:34:18;;;;;;;2.42;0.63;;;;;;;;;;4996571;28;20110;-51
2022/08/30 12:36:51;;;;;;;1.17;0.65;;;;;;;;;;5001349;28;20057;-49
2022/08/30 12:39:24;;;;;;;1.80;0.60;;;;;;;;;;5000379;28;20058;-51
2022/08/30 12:41:59;;;;;;;2.15;0.77;;;;;;;;;;5000651;28;20065;-48
2022/08/30 12:44:27;;;;;;;1.63;0.70;;;;;;;;;;4993624;28;20498;-50
2022/08/30 12:46:55;;;;;;;2.08;0.70;;;;;;;;;;5001658;28;20141;-48
2022/08/30 12:49:25;;;;;;;1.95;0.70;;;;;;;;;;5002103;28;20054;-48
2022/08/30 12:51:53;;;;;;;2.55;0.63;;;;;;;;;;5000212;28;20054;-51
2022/08/30 12:54:22;;;;;;;1.52;0.50;;;;;;;;;;4982868;28;20106;-50
2022/08/30 12:56:56;;;;;;;2.03;0.50;;;;;;;;;;5004410;28;20057;-50
2022/08/30 12:59:54;;;;;;;1.45;0.75;;;;;;;;;;5010310;28;20451;-50
2022/08/30 13:02:22;;;;;;;0.82;0.30;;;;;;;;;;4976320;28;20059;-48
2022/08/30 13:04:48;;;;;;;1.27;0.50;;;;;;;;;;4979617;28;20118;-49
2022/08/30 13:07:26;;;;;;;1.75;0.43;;;;;;;;;;4979989;28;20407;-48
2022/08/30 13:09:59;;;;;;;1.10;0.40;;;;;;;;;;4980290;28;20078;-51
2022/08/30 13:12:27;;;;;;;1.75;0.60;;;;;;;;;;4976236;28;20050;-50
2022/08/30 13:15:08;;;;;;;1.67;0.65;;;;;;;;;;4976642;28;20135;-48
2022/08/30 13:17:34;;;;;;;0.85;0.40;;;;;;;;;;4985636;28;20416;-48
2022/08/30 13:20:04;;;;;;;5.15;1.52;;;;;;;;;;5001502;28;20046;-48
2022/08/30 13:22:31;;;;;;;2.03;0.80;;;;;;;;;;5000573;28;20058;-49
2022/08/30 13:24:58;;;;;;;1.73;0.40;;;;;;;;;;5000942;28;20390;-48
2022/08/30 13:27:25;;;;;;;1.20;0.60;;;;;;;;;;5000521;28;20485;-48
2022/08/30 13:29:52;;;;;;;1.15;0.50;;;;;;;;;;5000737;28;20447;-50
2022/08/30 13:32:19;;;;;;;5.18;0.77;;;;;;;;;;5002661;28;20054;-48
2022/08/30 13:34:45;;;;;;;3.30;0.63;;;;;;;;;;5002930;28;20050;-48
2022/08/30 13:37:15;;;;;;;1.85;0.40;;;;;;;;;;4987118;28;20066;-48
2022/08/30 13:39:42;;;;;;;2.92;0.65;;;;;;;;;;4988369;28;20065;-48
2022/08/30 13:42:10;;;;;;;2.50;0.63;;;;;;;;;;5002524;28;20069;-49
2022/08/30 13:44:38;;;;;;;2.92;0.63;;;;;;;;;;4992755;28;20054;-48
2022/08/30 13:47:06;;;;;;;4.10;0.63;;;;;;;;;;5001299;28;20050;-50
2022/08/30 13:49:35;;;;;;;1.35;0.50;;;;;;;;;;5000878;28;20054;-47
2022/08/30 13:52:01;;;;;;;1.30;0.50;;;;;;;;;;4997702;28;20088;-47
2022/08/30 13:54:28;;;;;;;1.70;0.70;;;;;;;;;;4981528;28;20059;-48
2022/08/30 13:56:54;;;;;;;2.13;0.60;;;;;;;;;;4988907;28;20041;-47
2022/08/30 13:59:22;;;;;;;1.42;0.60;;;;;;;;;;5000702;28;20069;-48
2022/08/30 14:01:50;;;;;;;0.85;0.43;;;;;;;;;;5000699;28;20050;-49
2022/08/30 14:04:18;;;;;;;4.40;0.60;;;;;;;;;;5000735;28;20043;-51
2022/08/30 14:06:44;;;;;;;1.80;0.45;;;;;;;;;;5000308;28;20053;-51
2022/08/30 14:09:13;;;;;;;2.58;0.50;;;;;;;;;;4999995;28;20053;-49
2022/08/30 14:11:39;;;;;;;2.90;0.52;;;;;;;;;;4999616;28;20084;-48
2022/08/30 14:14:06;;;;;;;2.03;0.60;;;;;;;;;;4998721;28;20450;-47
2022/08/30 14:16:33;;;;;;;0.95;0.40;;;;;;;;;;4999498;28;20064;-51
2022/08/30 14:19:00;;;;;;;2.20;0.63;;;;;;;;;;5000374;28;20062;-47
2022/08/30 14:21:28;;;;;;;1.45;0.40;;;;;;;;;;4993602;28;20061;-48
2022/08/30 14:23:55;;;;;;;2.42;0.60;;;;;;;;;;4988955;28;20053;-50
2022/08/30 14:26:23;;;;;;;1.50;0.40;;;;;;;;;;4994525;28;20081;-48
2022/08/30 14:28:50;;;;;;;3.22;0.90;;;;;;;;;;4998820;28;20570;-51
2022/08/30 14:31:16;;;;;;;3.15;0.80;;;;;;;;;;4998673;28;20061;-47
2022/08/30 14:33:44;;;;;;;1.88;0.70;;;;;;;;;;4980832;28;20050;-47
2022/08/30 14:36:11;;;;;;;2.47;0.60;;;;;;;;;;4979311;28;20584;-48
2022/08/30 14:38:41;;;;;;;3.58;0.65;;;;;;;;;;4979057;28;20510;-48
2022/08/30 14:41:08;;;;;;;10.10;0.95;;;;;;;;;;4996838;28;20447;-47
2022/08/30 14:43:36;;;;;;;1.70;0.60;;;;;;;;;;4999074;28;20046;-51
2022/08/30 14:46:02;;;;;;;3.28;0.63;;;;;;;;;;4998479;28;20152;-49
2022/08/30 14:48:29;;;;;;;3.45;0.47;;;;;;;;;;4998010;28;20062;-48
2022/08/30 14:50:55;;;;;;;1.75;0.40;;;;;;;;;;4998707;28;20061;-48
2022/08/30 14:53:21;;;;;;;2.50;0.70;;;;;;;;;;4997124;28;20458;-50
2022/08/30 14:55:49;;;;;;;2.08;0.70;;;;;;;;;;4998603;28;20053;-48
2022/08/30 14:58:16;;;;;;;1.50;0.50;;;;;;;;;;5013728;28;20061;-48